< < Back
Terminal Aerodrome Forecast


Current Version              Previous Versions:   1  2  3  4  5  6  7  8  9  

Terminal Aerodrome Forecast

063
FTUS42 KCAE 200200 AAA
TAFCAE
TAF AMD
KCAE 200246Z 2003/2024 05005KT P6SM FEW250
     FM200900 06009KT P6SM BKN012
     FM201500 06012KT P6SM BKN040
     FM202100 06008KT P6SM FEW250=

Latest METAR

263
SAUS80 KWBC 200800 CCA
MTRCAE
METAR KCAE 200756Z 06007KT 10SM FEW060 21/15 A3012 RMK AO2 SLP197
T02060150


USA.gov is the U.S. government's official web portal to all federal, state and local government web resources and services.